createdAt,value
2023-01-08T00:00:18.932Z,7.31
2023-01-08T00:01:19.017Z,7.28
2023-01-08T00:02:18.876Z,7.24
2023-01-08T00:03:19.007Z,7.24
2023-01-08T00:04:18.865Z,7.28
2023-01-08T00:05:18.868Z,7.28
2023-01-08T00:06:18.883Z,7.23
2023-01-08T00:07:18.799Z,7.23
2023-01-08T00:08:18.789Z,7.28
2023-01-08T00:09:18.831Z,7.21
2023-01-08T00:10:19.395Z,7.14
2023-01-08T00:11:19.385Z,7.07
2023-01-08T00:12:18.959Z,7.17
2023-01-08T00:13:18.756Z,7.15
2023-01-08T00:14:18.740Z,7.17
2023-01-08T00:15:18.722Z,7.07
2023-01-08T00:16:18.830Z,7.13
2023-01-08T00:17:18.853Z,7.14
2023-01-08T00:18:18.664Z,7.14
2023-01-08T00:19:18.675Z,7.15
2023-01-08T00:20:18.677Z,7.17
2023-01-08T00:21:18.655Z,7.23
2023-01-08T00:22:18.620Z,7.23
2023-01-08T00:23:18.599Z,7.24
2023-01-08T00:24:18.610Z,7.33
2023-01-08T00:25:18.586Z,7.35
2023-01-08T00:26:18.552Z,7.39
2023-01-08T00:27:18.558Z,7.32
2023-01-08T00:28:18.548Z,7.39
2023-01-08T00:29:18.557Z,7.39
2023-01-08T00:30:18.535Z,7.33
2023-01-08T00:31:18.633Z,7.36
2023-01-08T00:32:18.525Z,7.35
2023-01-08T00:33:18.632Z,7.38
2023-01-08T00:34:18.517Z,7.43
2023-01-08T00:35:18.468Z,7.42
2023-01-08T00:36:18.466Z,7.45
2023-01-08T00:37:18.433Z,7.42
2023-01-08T00:38:18.481Z,7.45
2023-01-08T00:39:18.481Z,7.38
2023-01-08T00:40:18.636Z,7.36
2023-01-08T00:41:18.405Z,7.39
2023-01-08T00:42:18.408Z,7.38
2023-01-08T00:43:18.387Z,7.40
2023-01-08T00:44:18.354Z,7.42
2023-01-08T00:45:18.339Z,7.43
2023-01-08T00:46:18.406Z,7.51
2023-01-08T00:47:18.334Z,7.50
2023-01-08T00:48:18.346Z,7.57
2023-01-08T00:49:18.449Z,7.57
2023-01-08T00:50:18.308Z,7.50
2023-01-08T00:51:18.282Z,7.45
2023-01-08T00:52:18.276Z,7.45
2023-01-08T00:53:18.240Z,7.54
2023-01-08T00:54:18.307Z,7.56
2023-01-08T00:55:18.280Z,7.61
2023-01-08T00:56:18.225Z,7.58
2023-01-08T00:57:18.403Z,7.58
2023-01-08T00:58:18.280Z,7.50
2023-01-08T00:59:18.191Z,7.54
2023-01-08T01:00:18.195Z,7.51
2023-01-08T01:01:18.326Z,7.45
2023-01-08T01:02:18.243Z,7.50
2023-01-08T01:03:18.153Z,7.47
2023-01-08T01:04:18.175Z,7.42
2023-01-08T01:05:18.251Z,7.48
2023-01-08T01:06:18.156Z,7.42
2023-01-08T01:07:18.103Z,7.39
2023-01-08T01:08:18.098Z,7.40
2023-01-08T01:09:18.117Z,7.36
2023-01-08T01:10:18.055Z,7.32
2023-01-08T01:11:18.052Z,7.42
2023-01-08T01:12:18.016Z,7.39
2023-01-08T01:13:18.061Z,7.48
2023-01-08T01:14:18.211Z,7.42
2023-01-08T01:15:18.011Z,7.45
2023-01-08T01:16:18.268Z,7.50
2023-01-08T01:17:17.958Z,7.47
2023-01-08T01:18:18.158Z,7.47
2023-01-08T01:19:17.987Z,7.47
2023-01-08T01:20:17.969Z,7.42
2023-01-08T01:21:18.075Z,7.36
2023-01-08T01:22:17.915Z,7.36
2023-01-08T01:23:17.896Z,7.40
2023-01-08T01:24:17.899Z,7.40
2023-01-08T01:25:18.118Z,7.42
2023-01-08T01:26:17.887Z,7.38
2023-01-08T01:27:17.916Z,7.36
2023-01-08T01:28:17.889Z,7.38
2023-01-08T01:29:17.869Z,7.39
2023-01-08T01:30:17.840Z,7.38
2023-01-08T01:31:17.935Z,7.32
2023-01-08T01:32:17.808Z,7.38
2023-01-08T01:33:17.814Z,7.29
2023-01-08T01:34:17.777Z,7.33
2023-01-08T01:35:17.753Z,7.24
2023-01-08T01:36:17.768Z,7.23
2023-01-08T01:37:18.248Z,7.18
2023-01-08T01:38:17.703Z,7.21
2023-01-08T01:39:17.698Z,7.15
2023-01-08T01:40:17.691Z,7.21
2023-01-08T01:41:17.705Z,7.18
2023-01-08T01:42:17.671Z,7.21
2023-01-08T01:43:17.857Z,7.18
2023-01-08T01:44:17.842Z,7.24
2023-01-08T01:45:17.633Z,7.17
2023-01-08T01:46:17.728Z,7.20
2023-01-08T01:47:17.598Z,7.21
2023-01-08T01:48:17.606Z,7.20
2023-01-08T01:49:17.809Z,7.15
2023-01-08T01:50:17.804Z,7.15
2023-01-08T01:51:17.554Z,7.14
2023-01-08T01:52:17.588Z,7.15
2023-01-08T01:53:17.669Z,7.17
2023-01-08T01:54:17.529Z,7.13
2023-01-08T01:55:17.549Z,7.21
2023-01-08T01:56:17.725Z,7.21
2023-01-08T01:57:17.500Z,7.13
2023-01-08T01:58:17.701Z,7.17
2023-01-08T01:59:17.463Z,7.07
2023-01-08T02:00:17.681Z,7.11
2023-01-08T02:01:17.866Z,7.18
2023-01-08T02:02:17.673Z,7.05
2023-01-08T02:03:17.632Z,7.06
2023-01-08T02:04:17.498Z,6.92
2023-01-08T02:05:17.388Z,6.99
2023-01-08T02:06:17.417Z,6.97
2023-01-08T02:07:17.386Z,7.00
2023-01-08T02:08:17.373Z,6.99
2023-01-08T02:09:17.522Z,6.93
2023-01-08T02:10:17.377Z,6.99
2023-01-08T02:11:17.352Z,6.84
2023-01-08T02:12:17.379Z,6.82
2023-01-08T02:13:17.304Z,6.84
2023-01-08T02:14:17.319Z,6.81
2023-01-08T02:15:17.297Z,6.85
2023-01-08T02:16:17.303Z,6.84
2023-01-08T02:17:17.283Z,6.99
2023-01-08T02:18:17.347Z,7.00
2023-01-08T02:19:17.497Z,6.93
2023-01-08T02:20:17.240Z,7.15
2023-01-08T02:21:17.239Z,7.13
2023-01-08T02:22:17.219Z,7.21
2023-01-08T02:23:17.212Z,7.32
2023-01-08T02:24:17.202Z,7.38
2023-01-08T02:25:17.292Z,7.38
2023-01-08T02:26:17.386Z,7.43
2023-01-08T02:27:17.227Z,7.40
2023-01-08T02:28:17.130Z,7.33
2023-01-08T02:29:17.121Z,7.32
2023-01-08T02:30:17.113Z,7.35
2023-01-08T02:31:17.234Z,7.24
2023-01-08T02:32:17.124Z,7.20
2023-01-08T02:33:17.292Z,7.20
2023-01-08T02:34:17.069Z,7.18
2023-01-08T02:35:17.066Z,7.13
2023-01-08T02:36:17.065Z,6.97
2023-01-08T02:37:17.024Z,6.96
2023-01-08T02:38:17.020Z,6.95
2023-01-08T02:39:17.021Z,6.87
2023-01-08T02:40:17.028Z,6.84
2023-01-08T02:41:17.115Z,6.78
2023-01-08T02:42:16.989Z,6.77
2023-01-08T02:43:16.951Z,6.74
2023-01-08T02:44:16.942Z,6.75
2023-01-08T02:45:16.976Z,6.67
2023-01-08T02:46:17.008Z,6.54
2023-01-08T02:47:16.934Z,6.66
2023-01-08T02:48:17.119Z,6.56
2023-01-08T02:49:16.920Z,6.56
2023-01-08T02:50:16.877Z,6.63
2023-01-08T02:51:16.936Z,6.52
2023-01-08T02:52:16.888Z,6.54
2023-01-08T02:53:16.898Z,6.52
2023-01-08T02:54:17.029Z,6.54
2023-01-08T02:55:16.828Z,6.52
2023-01-08T02:56:16.806Z,6.51
2023-01-08T02:57:16.934Z,6.59
2023-01-08T02:58:16.853Z,6.52
2023-01-08T02:59:16.779Z,6.56
2023-01-08T03:00:16.759Z,6.41
2023-01-08T03:01:17.003Z,6.42
2023-01-08T03:02:16.982Z,6.44
2023-01-08T03:03:16.724Z,6.35
2023-01-08T03:04:16.771Z,6.31
2023-01-08T03:05:16.711Z,6.33
2023-01-08T03:06:16.687Z,6.31
2023-01-08T03:07:16.682Z,6.28
2023-01-08T03:08:16.676Z,6.33
2023-01-08T03:09:16.882Z,6.30
2023-01-08T03:10:16.647Z,6.35
2023-01-08T03:11:16.662Z,6.31
2023-01-08T03:12:16.640Z,6.31
2023-01-08T03:13:16.735Z,6.30
2023-01-08T03:14:16.611Z,6.31
2023-01-08T03:15:16.788Z,6.35
2023-01-08T03:16:16.612Z,6.30
2023-01-08T03:17:16.576Z,6.17
2023-01-08T03:18:16.546Z,6.28
2023-01-08T03:19:16.590Z,6.31
2023-01-08T03:20:16.553Z,6.33
2023-01-08T03:21:16.499Z,6.31
2023-01-08T03:22:16.526Z,6.24
2023-01-08T03:23:16.501Z,6.33
2023-01-08T03:24:16.471Z,6.30
2023-01-08T03:25:16.479Z,6.24
2023-01-08T03:26:16.463Z,6.26
2023-01-08T03:27:16.442Z,6.27
2023-01-08T03:28:16.421Z,6.36
2023-01-08T03:29:16.524Z,6.42
2023-01-08T03:30:16.406Z,6.51
2023-01-08T03:31:16.503Z,6.49
2023-01-08T03:32:16.377Z,6.48
2023-01-08T03:33:16.369Z,6.41
2023-01-08T03:34:16.358Z,6.45
2023-01-08T03:35:16.353Z,6.44
2023-01-08T03:36:16.333Z,6.39
2023-01-08T03:37:16.308Z,6.30
2023-01-08T03:38:16.345Z,6.33
2023-01-08T03:39:16.303Z,6.26
2023-01-08T03:40:16.280Z,6.22
2023-01-08T03:41:16.271Z,6.20
2023-01-08T03:42:16.265Z,6.19
2023-01-08T03:43:16.245Z,6.14
2023-01-08T03:44:16.455Z,6.14
2023-01-08T03:45:16.530Z,6.14
2023-01-08T03:46:16.479Z,6.16
2023-01-08T03:47:16.220Z,6.12
2023-01-08T03:48:16.192Z,6.16
2023-01-08T03:49:16.180Z,6.16
2023-01-08T03:50:16.173Z,6.22
2023-01-08T03:51:16.171Z,6.24
2023-01-08T03:52:16.138Z,6.12
2023-01-08T03:53:16.126Z,6.19
2023-01-08T03:54:16.122Z,6.12
2023-01-08T03:55:16.096Z,6.28
2023-01-08T03:56:16.092Z,6.24
2023-01-08T03:57:16.079Z,6.28
2023-01-08T03:58:16.063Z,6.20
2023-01-08T03:59:16.071Z,6.28
2023-01-08T04:00:16.054Z,6.27
2023-01-08T04:01:16.239Z,6.20
2023-01-08T04:02:16.178Z,6.24
2023-01-08T04:03:15.999Z,6.28
2023-01-08T04:04:16.101Z,6.30
2023-01-08T04:05:16.189Z,6.30
2023-01-08T04:06:15.969Z,6.16
2023-01-08T04:07:15.991Z,6.26
2023-01-08T04:08:15.945Z,6.22
2023-01-08T04:09:15.942Z,6.22
2023-01-08T04:10:15.931Z,6.17
2023-01-08T04:11:15.907Z,6.22
2023-01-08T04:12:16.103Z,6.19
2023-01-08T04:13:15.902Z,6.20
2023-01-08T04:14:15.883Z,6.17
2023-01-08T04:15:15.888Z,6.14
2023-01-08T04:16:15.923Z,6.17
2023-01-08T04:17:15.980Z,6.11
2023-01-08T04:18:15.856Z,6.09
2023-01-08T04:19:15.817Z,6.22
2023-01-08T04:20:15.803Z,6.20
2023-01-08T04:21:16.018Z,6.24
2023-01-08T04:22:15.797Z,6.17
2023-01-08T04:23:15.793Z,6.22
2023-01-08T04:24:15.779Z,6.22
2023-01-08T04:25:15.766Z,6.27
2023-01-08T04:26:15.759Z,6.20
2023-01-08T04:27:15.782Z,6.19
2023-01-08T04:28:15.720Z,6.24
2023-01-08T04:29:15.928Z,6.22
2023-01-08T04:30:15.718Z,6.20
2023-01-08T04:31:15.784Z,6.30
2023-01-08T04:32:15.661Z,6.35
2023-01-08T04:33:15.765Z,6.27
2023-01-08T04:34:15.632Z,6.31
2023-01-08T04:35:15.628Z,6.31
2023-01-08T04:36:15.603Z,6.33
2023-01-08T04:37:15.586Z,6.35
2023-01-08T04:38:15.800Z,6.46
2023-01-08T04:39:15.600Z,6.41
2023-01-08T04:40:15.557Z,6.45
2023-01-08T04:41:15.569Z,6.51
2023-01-08T04:42:15.539Z,6.54
2023-01-08T04:43:15.529Z,6.56
2023-01-08T04:44:15.512Z,6.52
2023-01-08T04:45:15.579Z,6.52
2023-01-08T04:46:15.538Z,6.52
2023-01-08T04:47:15.521Z,6.46
2023-01-08T04:48:15.486Z,6.54
2023-01-08T04:49:15.635Z,6.49
2023-01-08T04:50:15.436Z,6.49
2023-01-08T04:51:15.462Z,6.57
2023-01-08T04:52:15.420Z,6.62
2023-01-08T04:53:15.434Z,6.67
2023-01-08T04:54:15.584Z,6.72
2023-01-08T04:55:15.407Z,6.70
2023-01-08T04:56:15.392Z,6.75
2023-01-08T04:57:15.373Z,6.75
2023-01-08T04:58:15.367Z,6.82
2023-01-08T04:59:15.336Z,6.84
2023-01-08T05:00:15.544Z,6.82
2023-01-08T05:01:15.471Z,6.84
2023-01-08T05:02:15.539Z,6.88
2023-01-08T05:03:15.426Z,6.87
2023-01-08T05:04:15.296Z,6.82
2023-01-08T05:05:15.399Z,6.84
2023-01-08T05:06:15.329Z,6.81
2023-01-08T05:07:15.254Z,6.77
2023-01-08T05:08:15.227Z,6.78
2023-01-08T05:09:15.212Z,6.81
2023-01-08T05:10:15.224Z,6.85
2023-01-08T05:11:15.415Z,6.81
2023-01-08T05:12:15.231Z,6.82
2023-01-08T05:13:15.217Z,6.87
2023-01-08T05:14:15.188Z,6.79
2023-01-08T05:15:15.147Z,6.87
2023-01-08T05:16:15.389Z,6.79
2023-01-08T05:17:15.378Z,6.82
2023-01-08T05:18:15.127Z,6.79
2023-01-08T05:19:15.126Z,6.75
2023-01-08T05:20:15.107Z,6.74
2023-01-08T05:21:15.244Z,6.82
2023-01-08T05:22:15.104Z,6.84
2023-01-08T05:23:15.071Z,6.82
2023-01-08T05:24:15.131Z,6.77
2023-01-08T05:25:15.048Z,6.77
2023-01-08T05:26:15.051Z,6.79
2023-01-08T05:27:15.085Z,6.81
2023-01-08T05:28:15.042Z,6.84
2023-01-08T05:29:15.076Z,6.81
2023-01-08T05:30:15.013Z,6.87
2023-01-08T05:31:15.117Z,6.89
2023-01-08T05:32:15.139Z,6.84
2023-01-08T05:33:14.960Z,6.84
2023-01-08T05:34:14.950Z,6.95
2023-01-08T05:35:14.955Z,6.82
2023-01-08T05:36:14.978Z,6.92
2023-01-08T05:37:15.076Z,7.05
2023-01-08T05:38:14.961Z,7.14
2023-01-08T05:39:14.861Z,7.31
2023-01-08T05:40:14.914Z,7.56
2023-01-08T05:41:14.911Z,7.75
2023-01-08T05:42:14.843Z,7.85
2023-01-08T05:43:14.851Z,7.98
2023-01-08T05:44:14.842Z,8.13
2023-01-08T05:45:14.835Z,8.27
2023-01-08T05:46:14.850Z,8.20
2023-01-08T05:47:14.767Z,8.41
2023-01-08T05:48:14.816Z,8.49
2023-01-08T05:49:16.870Z,8.49
2023-01-08T05:50:14.788Z,8.63
2023-01-08T05:51:14.740Z,8.66
2023-01-08T05:52:14.748Z,8.67
2023-01-08T05:53:14.848Z,8.69
2023-01-08T05:54:14.725Z,8.76
2023-01-08T05:55:14.682Z,8.82
2023-01-08T05:56:14.693Z,8.76
2023-01-08T05:57:14.653Z,8.85
2023-01-08T05:58:14.704Z,8.88
2023-01-08T05:59:14.665Z,8.87
2023-01-08T06:00:14.624Z,8.89
2023-01-08T06:01:14.700Z,8.89
2023-01-08T06:02:14.629Z,8.91
2023-01-08T06:03:14.705Z,8.92
2023-01-08T06:04:14.736Z,8.91
2023-01-08T06:05:14.650Z,9.02
2023-01-08T06:06:14.542Z,9.00
2023-01-08T06:07:14.599Z,9.03
2023-01-08T06:08:14.577Z,8.95
2023-01-08T06:09:14.678Z,8.94
2023-01-08T06:10:14.562Z,8.94
2023-01-08T06:11:14.509Z,8.92
2023-01-08T06:12:14.563Z,8.88
2023-01-08T06:13:14.566Z,8.91
2023-01-08T06:14:14.489Z,8.85
2023-01-08T06:15:14.484Z,8.88
2023-01-08T06:16:14.598Z,8.92
2023-01-08T06:17:14.424Z,8.94
2023-01-08T06:18:14.541Z,8.92
2023-01-08T06:19:14.442Z,9.02
2023-01-08T06:20:14.380Z,8.99
2023-01-08T06:21:14.576Z,9.04
2023-01-08T06:22:14.415Z,9.00
2023-01-08T06:23:14.346Z,9.00
2023-01-08T06:24:14.397Z,9.11
2023-01-08T06:25:14.402Z,9.11
2023-01-08T06:26:14.336Z,9.10
2023-01-08T06:27:14.328Z,9.03
2023-01-08T06:28:14.337Z,9.10
2023-01-08T06:29:14.307Z,9.06
2023-01-08T06:30:14.325Z,9.10
2023-01-08T06:31:14.348Z,9.04
2023-01-08T06:32:14.252Z,9.02
2023-01-08T06:33:14.363Z,9.13
2023-01-08T06:34:14.260Z,9.08
2023-01-08T06:35:14.318Z,9.04
2023-01-08T06:36:14.451Z,9.03
2023-01-08T06:37:14.187Z,8.94
2023-01-08T06:38:14.188Z,8.92
2023-01-08T06:39:14.232Z,8.91
2023-01-08T06:40:14.148Z,8.79
2023-01-08T06:41:14.305Z,8.85
2023-01-08T06:42:14.229Z,8.81
2023-01-08T06:43:14.250Z,8.70
2023-01-08T06:44:14.135Z,8.76
2023-01-08T06:45:14.101Z,8.63
2023-01-08T06:46:14.152Z,8.66
2023-01-08T06:47:14.124Z,8.66
2023-01-08T06:48:14.104Z,8.63
2023-01-08T06:49:14.079Z,8.56
2023-01-08T06:50:14.073Z,8.56
2023-01-08T06:51:14.063Z,8.63
2023-01-08T06:52:14.032Z,8.45
2023-01-08T06:53:14.022Z,8.56
2023-01-08T06:54:14.052Z,8.55
2023-01-08T06:55:14.010Z,8.61
2023-01-08T06:56:13.994Z,8.70
2023-01-08T06:57:14.114Z,8.66
2023-01-08T06:58:13.973Z,8.63
2023-01-08T06:59:13.947Z,8.67
2023-01-08T07:00:13.925Z,8.76
2023-01-08T07:01:14.077Z,8.78
2023-01-08T07:02:14.081Z,8.79
2023-01-08T07:03:13.947Z,8.84
2023-01-08T07:04:13.898Z,8.85
2023-01-08T07:05:14.068Z,8.95
2023-01-08T07:06:13.887Z,8.95
2023-01-08T07:07:13.871Z,8.97
2023-01-08T07:08:13.853Z,8.91
2023-01-08T07:09:13.841Z,8.95
2023-01-08T07:10:13.815Z,8.94
2023-01-08T07:11:13.820Z,8.94
2023-01-08T07:12:13.806Z,8.92
2023-01-08T07:13:13.885Z,8.92
2023-01-08T07:14:13.802Z,9.02
2023-01-08T07:15:13.767Z,9.08
2023-01-08T07:16:13.873Z,8.95
2023-01-08T07:17:13.796Z,9.04
2023-01-08T07:18:13.779Z,9.04
2023-01-08T07:19:13.776Z,9.14
2023-01-08T07:20:13.704Z,9.08
2023-01-08T07:21:13.697Z,9.03
2023-01-08T07:22:13.671Z,9.10
2023-01-08T07:23:13.688Z,9.02
2023-01-08T07:24:13.663Z,9.04
2023-01-08T07:25:13.668Z,9.04
2023-01-08T07:26:13.661Z,9.08
2023-01-08T07:27:13.643Z,9.02
2023-01-08T07:28:13.664Z,8.97
2023-01-08T07:29:13.767Z,8.88
2023-01-08T07:30:28.303Z,9.02
2023-01-08T07:31:13.702Z,9.03
2023-01-08T07:32:13.569Z,9.02
2023-01-08T07:33:13.652Z,9.06
2023-01-08T07:34:15.257Z,9.03
2023-01-08T07:35:13.535Z,9.04
2023-01-08T07:36:13.544Z,9.04
2023-01-08T07:37:13.548Z,9.03
2023-01-08T07:38:13.720Z,9.10
2023-01-08T07:39:13.491Z,9.08
2023-01-08T07:40:13.476Z,9.08
2023-01-08T07:41:13.475Z,9.11
2023-01-08T07:42:13.484Z,8.95
2023-01-08T07:43:13.436Z,9.10
2023-01-08T07:44:13.455Z,9.06
2023-01-08T07:45:13.565Z,9.08
2023-01-08T07:46:13.453Z,9.19
2023-01-08T07:47:13.402Z,9.06
2023-01-08T07:48:13.425Z,9.00
2023-01-08T07:49:13.401Z,9.08
2023-01-08T07:50:13.385Z,9.04
2023-01-08T07:51:13.363Z,9.18
2023-01-08T07:52:13.336Z,9.13
2023-01-08T07:53:13.398Z,9.11
2023-01-08T07:54:13.348Z,9.21
2023-01-08T07:55:13.322Z,9.03
2023-01-08T07:56:13.531Z,9.13
2023-01-08T07:57:13.308Z,9.03
2023-01-08T07:58:13.282Z,9.08
2023-01-08T07:59:13.481Z,9.08
2023-01-08T08:00:13.242Z,9.03
2023-01-08T08:01:13.412Z,9.04
2023-01-08T08:02:13.423Z,9.03
2023-01-08T08:03:13.270Z,9.11
2023-01-08T08:04:13.269Z,9.06
2023-01-08T08:05:13.406Z,9.08
2023-01-08T08:06:13.199Z,9.04
2023-01-08T08:07:13.196Z,9.03
2023-01-08T08:08:13.179Z,9.03
2023-01-08T08:09:13.182Z,9.00
2023-01-08T08:10:13.145Z,9.10
2023-01-08T08:11:13.174Z,9.03
2023-01-08T08:12:13.141Z,9.03
2023-01-08T08:13:13.148Z,8.92
2023-01-08T08:14:13.136Z,8.94
2023-01-08T08:15:13.128Z,8.95
2023-01-08T08:16:13.236Z,8.92
2023-01-08T08:17:13.245Z,8.97
2023-01-08T08:18:13.083Z,8.92
2023-01-08T08:19:13.091Z,8.91
2023-01-08T08:20:13.070Z,8.88
2023-01-08T08:21:13.061Z,8.85
2023-01-08T08:22:13.046Z,8.87
2023-01-08T08:23:13.039Z,8.92
2023-01-08T08:24:13.031Z,8.94
2023-01-08T08:25:13.030Z,8.92
2023-01-08T08:26:13.176Z,8.84
2023-01-08T08:27:12.977Z,8.99
2023-01-08T08:28:13.050Z,8.85
2023-01-08T08:29:12.948Z,8.84
2023-01-08T08:30:12.978Z,8.85
2023-01-08T08:31:13.028Z,8.84
2023-01-08T08:32:12.975Z,8.89
2023-01-08T08:33:13.049Z,8.94
2023-01-08T08:34:12.956Z,8.97
2023-01-08T08:35:12.922Z,9.08
2023-01-08T08:36:13.112Z,9.02
2023-01-08T08:37:12.904Z,9.06
2023-01-08T08:38:12.856Z,9.06
2023-01-08T08:39:12.861Z,9.10
2023-01-08T08:40:12.838Z,9.10
2023-01-08T08:41:12.830Z,9.08
2023-01-08T08:42:12.821Z,9.08
2023-01-08T08:43:12.788Z,9.14
2023-01-08T08:44:12.998Z,9.03
2023-01-08T08:45:12.780Z,9.19
2023-01-08T08:46:12.848Z,9.18
2023-01-08T08:47:12.760Z,9.03
2023-01-08T08:48:12.970Z,9.18
2023-01-08T08:49:12.835Z,9.18
2023-01-08T08:50:12.721Z,9.14
2023-01-08T08:51:12.691Z,9.22
2023-01-08T08:52:12.707Z,9.19
2023-01-08T08:53:12.698Z,9.14
2023-01-08T08:54:12.678Z,9.22
2023-01-08T08:55:12.679Z,9.22
2023-01-08T08:56:12.711Z,9.22
2023-01-08T08:57:12.644Z,9.23
2023-01-08T08:58:12.656Z,9.28
2023-01-08T08:59:12.846Z,9.26
2023-01-08T09:00:12.619Z,9.22
2023-01-08T09:01:12.656Z,9.26
2023-01-08T09:02:12.862Z,9.25
2023-01-08T09:03:12.676Z,9.21
2023-01-08T09:04:12.562Z,9.36
2023-01-08T09:05:12.671Z,9.32
2023-01-08T09:06:12.557Z,9.26
2023-01-08T09:07:12.542Z,9.29
2023-01-08T09:08:12.606Z,9.23
2023-01-08T09:09:12.517Z,9.25
2023-01-08T09:10:12.554Z,9.19
2023-01-08T09:11:14.336Z,9.25
2023-01-08T09:12:12.500Z,9.23
2023-01-08T09:13:12.492Z,9.19
2023-01-08T09:14:12.504Z,9.18
2023-01-08T09:15:12.429Z,9.16
2023-01-08T09:16:12.532Z,9.18
2023-01-08T09:17:12.435Z,9.19
2023-01-08T09:18:13.438Z,9.22
2023-01-08T09:19:12.403Z,9.23
2023-01-08T09:20:12.393Z,9.26
2023-01-08T09:21:12.427Z,9.26
2023-01-08T09:22:12.382Z,9.22
2023-01-08T09:23:12.587Z,9.29
2023-01-08T09:24:12.358Z,9.29
2023-01-08T09:25:12.352Z,9.36
2023-01-08T09:26:12.338Z,9.32
2023-01-08T09:27:12.294Z,9.36
2023-01-08T09:28:12.341Z,9.36
2023-01-08T09:29:12.280Z,9.41
2023-01-08T09:30:12.309Z,9.43
2023-01-08T09:31:12.540Z,9.34
2023-01-08T09:32:12.281Z,9.36
2023-01-08T09:33:12.242Z,9.31
2023-01-08T09:34:12.475Z,9.28
2023-01-08T09:35:12.286Z,9.39
2023-01-08T09:36:12.230Z,9.40
2023-01-08T09:37:12.332Z,9.40
2023-01-08T09:38:12.219Z,9.34
2023-01-08T09:39:12.388Z,9.37
2023-01-08T09:40:12.193Z,9.39
2023-01-08T09:41:12.180Z,9.37
2023-01-08T09:42:12.185Z,9.37
2023-01-08T09:43:12.135Z,9.34
2023-01-08T09:44:12.143Z,9.39
2023-01-08T09:45:12.302Z,9.40
2023-01-08T09:46:12.282Z,9.36
2023-01-08T09:47:12.107Z,9.34
2023-01-08T09:48:12.107Z,9.41
2023-01-08T09:49:12.083Z,9.39
2023-01-08T09:50:12.097Z,9.41
2023-01-08T09:51:12.083Z,9.37
2023-01-08T09:52:12.072Z,9.41
2023-01-08T09:53:12.166Z,9.40
2023-01-08T09:54:12.059Z,9.37
2023-01-08T09:55:12.025Z,9.39
2023-01-08T09:56:12.041Z,9.40
2023-01-08T09:57:12.008Z,9.39
2023-01-08T09:58:11.986Z,9.41
2023-01-08T09:59:11.987Z,9.39
2023-01-08T10:00:11.947Z,9.34
2023-01-08T10:01:12.089Z,9.37
2023-01-08T10:02:12.130Z,9.40
2023-01-08T10:03:11.891Z,9.34
2023-01-08T10:04:12.492Z,9.44
2023-01-08T10:05:11.868Z,9.36
2023-01-08T10:06:11.894Z,9.43
2023-01-08T10:07:11.909Z,9.47
2023-01-08T10:08:11.917Z,9.47
2023-01-08T10:09:11.987Z,9.44
2023-01-08T10:10:11.855Z,9.47
2023-01-08T10:11:11.847Z,9.44
2023-01-08T10:12:11.835Z,9.43
2023-01-08T10:13:11.818Z,9.47
2023-01-08T10:14:11.803Z,9.54
2023-01-08T10:15:11.771Z,9.58
2023-01-08T10:16:11.828Z,9.47
2023-01-08T10:17:11.871Z,9.55
2023-01-08T10:18:11.948Z,9.55
2023-01-08T10:19:11.766Z,9.47
2023-01-08T10:20:11.717Z,9.55
2023-01-08T10:21:11.700Z,9.54
2023-01-08T10:22:11.692Z,9.44
2023-01-08T10:23:11.691Z,9.50
2023-01-08T10:24:11.719Z,9.50
2023-01-08T10:25:11.774Z,9.61
2023-01-08T10:26:11.655Z,9.59
2023-01-08T10:27:11.631Z,9.55
2023-01-08T10:28:11.628Z,9.61
2023-01-08T10:29:11.624Z,9.56
2023-01-08T10:30:11.604Z,9.58
2023-01-08T10:31:11.620Z,9.61
2023-01-08T10:32:12.003Z,9.58
2023-01-08T10:33:11.584Z,9.65
2023-01-08T10:34:11.557Z,9.64
2023-01-08T10:35:11.570Z,9.66
2023-01-08T10:36:11.544Z,9.59
2023-01-08T10:37:11.547Z,9.62
2023-01-08T10:38:11.523Z,9.72
2023-01-08T10:39:11.515Z,9.76
2023-01-08T10:40:11.497Z,9.69
2023-01-08T10:41:11.654Z,9.74
2023-01-08T10:42:11.542Z,9.77
2023-01-08T10:43:11.478Z,9.79
2023-01-08T10:44:11.475Z,9.82
2023-01-08T10:45:11.479Z,9.83
2023-01-08T10:46:11.487Z,9.84
2023-01-08T10:47:11.623Z,9.80
2023-01-08T10:48:11.419Z,9.77
2023-01-08T10:49:11.396Z,9.92
2023-01-08T10:50:11.387Z,9.92
2023-01-08T10:51:11.381Z,9.91
2023-01-08T10:52:11.367Z,9.94
2023-01-08T10:53:11.363Z,9.94
2023-01-08T10:54:11.345Z,9.95
2023-01-08T10:55:11.336Z,9.98
2023-01-08T10:56:11.332Z,9.95
2023-01-08T10:57:11.437Z,9.99
2023-01-08T10:58:11.314Z,9.98
2023-01-08T10:59:11.504Z,9.95
2023-01-08T11:00:11.287Z,10.04
2023-01-08T11:01:11.365Z,10.10
2023-01-08T11:02:11.393Z,10.10
2023-01-08T11:03:11.243Z,10.15
2023-01-08T11:04:11.242Z,10.15
2023-01-08T11:05:11.386Z,10.17
2023-01-08T11:06:11.435Z,10.04
2023-01-08T11:07:11.212Z,10.01
2023-01-08T11:08:11.400Z,10.19
2023-01-08T11:09:11.204Z,10.07
2023-01-08T11:10:11.177Z,10.13
2023-01-08T11:11:11.165Z,10.22
2023-01-08T11:12:11.160Z,10.17
2023-01-08T11:13:11.163Z,10.22
2023-01-08T11:14:11.140Z,10.20
2023-01-08T11:15:11.131Z,10.19
2023-01-08T11:16:11.180Z,10.19
2023-01-08T11:17:11.114Z,10.13
2023-01-08T11:18:11.295Z,10.16
2023-01-08T11:19:11.076Z,10.17
2023-01-08T11:20:11.081Z,10.13
2023-01-08T11:21:11.073Z,10.15
2023-01-08T11:22:11.057Z,10.12
2023-01-08T11:23:11.076Z,10.17
2023-01-08T11:24:11.231Z,10.15
2023-01-08T11:25:13.327Z,10.09
2023-01-08T11:26:11.016Z,10.19
2023-01-08T11:27:11.015Z,10.15
2023-01-08T11:28:10.985Z,10.15
2023-01-08T11:29:11.004Z,10.19
2023-01-08T11:30:10.969Z,10.17
2023-01-08T11:31:11.094Z,10.16
2023-01-08T11:32:10.952Z,10.17
2023-01-08T11:33:10.957Z,10.12
2023-01-08T11:34:10.924Z,10.19
2023-01-08T11:35:10.915Z,10.17
2023-01-08T11:36:10.919Z,10.19
2023-01-08T11:37:10.903Z,10.22
2023-01-08T11:38:10.894Z,10.13
2023-01-08T11:39:10.970Z,10.17
2023-01-08T11:40:10.870Z,10.19
2023-01-08T11:41:10.876Z,10.26
2023-01-08T11:42:11.047Z,10.35
2023-01-08T11:43:10.864Z,10.31
2023-01-08T11:44:10.834Z,10.33
2023-01-08T11:45:10.871Z,10.35
2023-01-08T11:46:10.821Z,10.33
2023-01-08T11:47:10.800Z,10.37
2023-01-08T11:48:11.505Z,10.35
2023-01-08T11:49:10.773Z,10.35
2023-01-08T11:50:10.766Z,10.35
2023-01-08T11:51:10.945Z,10.33
2023-01-08T11:52:10.733Z,10.28
2023-01-08T11:53:10.725Z,10.23
2023-01-08T11:54:10.723Z,10.23
2023-01-08T11:55:10.697Z,10.22
2023-01-08T11:56:10.700Z,10.31
2023-01-08T11:57:10.732Z,10.28
2023-01-08T11:58:10.681Z,10.26
2023-01-08T11:59:10.660Z,10.17
2023-01-08T12:00:12.581Z,10.13
2023-01-08T12:01:10.699Z,10.13
2023-01-08T12:02:10.670Z,10.19
2023-01-08T12:03:10.680Z,10.17
2023-01-08T12:04:10.630Z,10.22
2023-01-08T12:05:10.845Z,10.22
2023-01-08T12:06:10.606Z,10.13
2023-01-08T12:07:10.578Z,10.17
2023-01-08T12:08:10.587Z,10.17
2023-01-08T12:09:10.574Z,10.26
2023-01-08T12:10:10.570Z,10.13
2023-01-08T12:11:10.795Z,10.15
2023-01-08T12:12:10.524Z,10.16
2023-01-08T12:13:10.551Z,10.16
2023-01-08T12:14:10.537Z,10.15
2023-01-08T12:15:10.517Z,10.15
2023-01-08T12:16:10.602Z,10.07
2023-01-08T12:17:10.497Z,10.10
2023-01-08T12:18:10.675Z,10.15
2023-01-08T12:19:10.464Z,10.13
2023-01-08T12:20:10.449Z,10.19
2023-01-08T12:21:10.454Z,10.12
2023-01-08T12:22:10.430Z,10.15
2023-01-08T12:23:10.413Z,10.17
2023-01-08T12:24:12.003Z,10.15
2023-01-08T12:25:10.397Z,10.10
2023-01-08T12:26:10.385Z,10.05
2023-01-08T12:27:10.380Z,10.17
2023-01-08T12:28:10.381Z,10.10
2023-01-08T12:29:10.349Z,10.07
2023-01-08T12:30:10.331Z,10.13
2023-01-08T12:31:10.325Z,10.12
2023-01-08T12:32:10.588Z,10.09
2023-01-08T12:33:10.341Z,10.07
2023-01-08T12:34:10.294Z,10.16
2023-01-08T12:35:10.294Z,10.04
2023-01-08T12:36:10.292Z,10.07
2023-01-08T12:37:10.261Z,10.07
2023-01-08T12:38:10.254Z,9.99
2023-01-08T12:39:10.275Z,10.09
2023-01-08T12:40:10.259Z,10.09
2023-01-08T12:41:10.241Z,10.12
2023-01-08T12:42:10.313Z,9.99
2023-01-08T12:43:10.226Z,10.12
2023-01-08T12:44:10.268Z,10.05
2023-01-08T12:45:10.171Z,10.09
2023-01-08T12:46:10.216Z,10.10
2023-01-08T12:47:10.378Z,10.07
2023-01-08T12:48:10.141Z,10.09
2023-01-08T12:49:10.169Z,10.09
2023-01-08T12:50:10.351Z,10.07
2023-01-08T12:51:10.137Z,10.07
2023-01-08T12:52:10.122Z,10.02
2023-01-08T12:53:10.115Z,10.05
2023-01-08T12:54:10.123Z,10.02
2023-01-08T12:55:10.088Z,9.95
2023-01-08T12:56:10.072Z,10.01
2023-01-08T12:57:10.082Z,9.98
2023-01-08T12:58:10.048Z,10.01
2023-01-08T12:59:10.047Z,9.99
2023-01-08T13:00:10.038Z,10.13
2023-01-08T13:01:10.276Z,10.02
2023-01-08T13:02:10.155Z,10.01
2023-01-08T13:03:10.006Z,9.92
2023-01-08T13:04:10.004Z,9.95
2023-01-08T13:05:10.007Z,9.99
2023-01-08T13:06:10.159Z,9.98
2023-01-08T13:07:09.943Z,9.98
2023-01-08T13:08:09.951Z,9.94
2023-01-08T13:09:09.935Z,9.95
2023-01-08T13:10:09.921Z,9.97
2023-01-08T13:11:09.892Z,9.92
2023-01-08T13:12:09.899Z,9.97
2023-01-08T13:13:09.873Z,9.94
2023-01-08T13:14:09.892Z,9.94